Time;durP1;ratioP1;P1;durP2;ratioP2;P2;SDS_P1;SDS_P2;PMS_P1;PMS_P2;Temp;Humidity;BMP_temperature;BMP_pressure;BME280_temperature;BME280_humidity;BME280_pressure;Samples;Min_cycle;Max_cycle;Signal;HPM_P1;HPM_P2
2024/01/06 00:02:07;;;;;;;19.70;9.38;;;;;;;;;;5015964;28;20025;-61
2024/01/06 00:04:33;;;;;;;7.57;4.80;;;;;;;;;;5027113;28;20079;-61
2024/01/06 00:06:59;;;;;;;5.10;3.83;;;;;;;;;;5011898;28;20025;-63
2024/01/06 00:09:26;;;;;;;7.10;4.85;;;;;;;;;;5003817;28;20129;-61
2024/01/06 00:11:52;;;;;;;6.90;5.13;;;;;;;;;;5009868;28;20489;-61
2024/01/06 00:14:18;;;;;;;8.35;5.28;;;;;;;;;;5027306;28;20033;-61
2024/01/06 00:16:44;;;;;;;9.05;5.32;;;;;;;;;;5004604;28;20030;-61
2024/01/06 00:19:11;;;;;;;9.10;4.57;;;;;;;;;;5009561;28;20022;-62
2024/01/06 00:21:37;;;;;;;12.52;6.38;;;;;;;;;;5017400;28;20021;-61
2024/01/06 00:24:03;;;;;;;4.75;3.97;;;;;;;;;;5006838;28;20045;-62
2024/01/06 00:26:29;;;;;;;9.43;5.45;;;;;;;;;;5007631;28;20022;-61
2024/01/06 00:28:56;;;;;;;6.38;4.05;;;;;;;;;;5003425;28;20026;-64
2024/01/06 00:31:22;;;;;;;4.85;4.10;;;;;;;;;;5015559;28;20239;-61
2024/01/06 00:33:48;;;;;;;7.03;4.10;;;;;;;;;;5019407;28;20028;-61
2024/01/06 00:36:14;;;;;;;7.85;4.30;;;;;;;;;;5018258;28;20025;-62
2024/01/06 00:38:40;;;;;;;9.73;5.63;;;;;;;;;;5015251;28;20061;-61
2024/01/06 00:41:06;;;;;;;5.90;3.65;;;;;;;;;;5016684;28;20069;-61
2024/01/06 00:43:32;;;;;;;8.60;4.00;;;;;;;;;;5007594;28;20018;-61
2024/01/06 00:45:59;;;;;;;7.15;4.07;;;;;;;;;;5024369;28;20223;-62
2024/01/06 00:48:25;;;;;;;7.85;4.90;;;;;;;;;;5010842;28;20497;-62
2024/01/06 00:50:51;;;;;;;6.40;4.50;;;;;;;;;;5018071;28;20045;-61
2024/01/06 00:53:17;;;;;;;10.27;4.15;;;;;;;;;;5014698;28;20108;-61
2024/01/06 00:55:43;;;;;;;8.13;4.50;;;;;;;;;;5006872;28;20029;-61
2024/01/06 00:58:09;;;;;;;6.70;4.57;;;;;;;;;;5016534;28;20108;-61
2024/01/06 01:00:36;;;;;;;4.97;3.53;;;;;;;;;;5013041;28;20516;-61
2024/01/06 01:03:02;;;;;;;7.70;4.50;;;;;;;;;;5006174;28;20136;-61
2024/01/06 01:05:28;;;;;;;5.43;3.95;;;;;;;;;;5017495;28;20021;-61
2024/01/06 01:07:54;;;;;;;5.47;3.92;;;;;;;;;;5013379;28;20041;-61
2024/01/06 01:10:20;;;;;;;6.90;4.47;;;;;;;;;;5025798;28;20032;-61
2024/01/06 01:12:46;;;;;;;8.88;4.93;;;;;;;;;;5010502;28;20108;-62
2024/01/06 01:15:12;;;;;;;11.07;4.60;;;;;;;;;;5013125;28;20063;-61
2024/01/06 01:17:38;;;;;;;5.05;4.35;;;;;;;;;;5011910;28;20026;-62
2024/01/06 01:20:05;;;;;;;8.45;4.07;;;;;;;;;;5008179;28;20062;-61
2024/01/06 01:22:31;;;;;;;8.32;5.75;;;;;;;;;;5009200;28;20277;-61
2024/01/06 01:24:57;;;;;;;3.95;3.42;;;;;;;;;;5008508;28;20029;-61
2024/01/06 01:27:24;;;;;;;5.85;4.72;;;;;;;;;;5007711;28;20034;-61
2024/01/06 01:29:52;;;;;;;6.95;5.35;;;;;;;;;;5013693;28;20590;-62
2024/01/06 01:32:19;;;;;;;7.22;4.15;;;;;;;;;;5012382;28;20173;-62
2024/01/06 01:34:45;;;;;;;12.57;4.93;;;;;;;;;;5015411;28;20028;-61
2024/01/06 01:37:11;;;;;;;8.18;4.30;;;;;;;;;;5010257;28;20052;-61
2024/01/06 01:39:37;;;;;;;9.93;5.40;;;;;;;;;;5016269;28;20034;-61
2024/01/06 01:42:03;;;;;;;10.88;5.40;;;;;;;;;;5005821;28;20030;-61
2024/01/06 01:44:29;;;;;;;17.30;5.13;;;;;;;;;;5014668;28;20104;-62
2024/01/06 01:46:56;;;;;;;10.73;4.78;;;;;;;;;;5004054;28;20444;-60
2024/01/06 01:49:22;;;;;;;7.53;4.03;;;;;;;;;;5011144;28;20045;-61
2024/01/06 01:51:49;;;;;;;13.13;5.05;;;;;;;;;;5007032;28;20026;-61
2024/01/06 01:54:16;;;;;;;9.32;4.47;;;;;;;;;;5013747;28;20037;-61
2024/01/06 01:56:42;;;;;;;10.80;4.20;;;;;;;;;;5006941;28;20025;-62
2024/01/06 01:59:12;;;;;;;7.07;3.85;;;;;;;;;;5018203;28;20364;-61
2024/01/06 02:01:40;;;;;;;9.02;4.88;;;;;;;;;;5012806;28;20026;-61
2024/01/06 02:04:06;;;;;;;9.77;4.25;;;;;;;;;;5011414;28;20025;-61
2024/01/06 02:06:32;;;;;;;21.15;3.97;;;;;;;;;;5022423;28;20029;-61
2024/01/06 02:08:58;;;;;;;5.43;4.32;;;;;;;;;;5024659;28;20164;-61
2024/01/06 02:11:24;;;;;;;5.75;3.65;;;;;;;;;;5010478;28;20030;-61
2024/01/06 02:13:51;;;;;;;6.50;4.13;;;;;;;;;;5015130;28;20321;-62
2024/01/06 02:16:17;;;;;;;3.60;3.20;;;;;;;;;;5012965;28;20021;-62
2024/01/06 02:18:43;;;;;;;10.02;4.55;;;;;;;;;;5030799;28;20025;-64
2024/01/06 02:21:10;;;;;;;9.05;4.00;;;;;;;;;;5006900;28;20029;-61
2024/01/06 02:23:37;;;;;;;4.47;3.33;;;;;;;;;;5013756;28;20433;-62
2024/01/06 02:26:04;;;;;;;8.10;3.92;;;;;;;;;;5011564;28;20029;-61
2024/01/06 02:28:30;;;;;;;5.95;3.72;;;;;;;;;;5013350;28;20026;-62
2024/01/06 02:30:56;;;;;;;7.20;3.63;;;;;;;;;;5016988;28;20495;-61
2024/01/06 02:33:24;;;;;;;5.35;3.97;;;;;;;;;;5014701;28;20064;-62
2024/01/06 02:35:50;;;;;;;6.20;4.13;;;;;;;;;;5004758;28;20033;-61
2024/01/06 02:38:16;;;;;;;5.63;4.28;;;;;;;;;;5011467;28;20092;-61
2024/01/06 02:40:43;;;;;;;4.30;3.85;;;;;;;;;;5007333;28;20030;-63
2024/01/06 02:43:10;;;;;;;8.00;4.88;;;;;;;;;;5010706;28;20030;-61
2024/01/06 02:45:36;;;;;;;7.78;4.22;;;;;;;;;;5006074;28;20034;-61
2024/01/06 02:48:02;;;;;;;5.38;4.63;;;;;;;;;;5012711;28;20589;-62
2024/01/06 02:50:28;;;;;;;5.20;3.60;;;;;;;;;;5017780;28;20409;-62
2024/01/06 02:52:54;;;;;;;9.38;4.47;;;;;;;;;;5014283;28;20034;-62
2024/01/06 02:55:20;;;;;;;5.95;4.70;;;;;;;;;;5018335;28;20392;-62
2024/01/06 02:57:46;;;;;;;4.50;3.55;;;;;;;;;;5004498;28;20072;-66
2024/01/06 03:00:13;;;;;;;8.82;4.45;;;;;;;;;;5009339;28;20060;-61
2024/01/06 03:02:41;;;;;;;3.97;3.38;;;;;;;;;;5016440;28;20563;-62
2024/01/06 03:05:08;;;;;;;6.20;4.10;;;;;;;;;;5015865;28;20033;-61
2024/01/06 03:07:34;;;;;;;5.20;3.97;;;;;;;;;;5015614;28;20087;-61
2024/01/06 03:10:01;;;;;;;6.13;3.95;;;;;;;;;;5016873;28;20064;-61
2024/01/06 03:12:27;;;;;;;10.77;3.83;;;;;;;;;;5012058;28;20022;-61
2024/01/06 03:14:53;;;;;;;6.45;3.92;;;;;;;;;;5014140;28;20034;-61
2024/01/06 03:17:19;;;;;;;5.18;3.33;;;;;;;;;;5005849;28;20071;-61
2024/01/06 03:19:45;;;;;;;7.97;3.22;;;;;;;;;;5012809;28;20030;-62
2024/01/06 03:22:11;;;;;;;5.25;3.22;;;;;;;;;;5007929;28;20424;-61
2024/01/06 03:24:37;;;;;;;3.55;3.25;;;;;;;;;;5013302;28;20029;-62
2024/01/06 03:27:04;;;;;;;7.13;3.00;;;;;;;;;;5010415;28;20484;-61
2024/01/06 03:29:30;;;;;;;9.88;3.55;;;;;;;;;;5007548;28;20064;-62
2024/01/06 03:31:56;;;;;;;7.68;3.60;;;;;;;;;;5011511;28;20112;-61
2024/01/06 03:34:22;;;;;;;7.38;3.20;;;;;;;;;;5028487;28;20360;-61
2024/01/06 03:36:48;;;;;;;7.60;4.65;;;;;;;;;;5029651;28;20048;-61
2024/01/06 03:39:14;;;;;;;3.08;2.58;;;;;;;;;;5027018;28;20562;-61
2024/01/06 03:41:40;;;;;;;4.07;2.72;;;;;;;;;;5007321;28;20415;-61
2024/01/06 03:44:07;;;;;;;9.20;3.50;;;;;;;;;;5013845;28;20025;-61
2024/01/06 03:46:34;;;;;;;4.60;2.47;;;;;;;;;;5010741;28;20509;-62
2024/01/06 03:49:00;;;;;;;10.45;3.83;;;;;;;;;;5010981;28;20142;-61
2024/01/06 03:51:26;;;;;;;2.90;2.65;;;;;;;;;;5013021;28;20100;-61
2024/01/06 03:53:52;;;;;;;6.68;2.95;;;;;;;;;;5011778;28;20033;-61
2024/01/06 03:56:18;;;;;;;8.30;3.35;;;;;;;;;;5014723;28;20044;-61
2024/01/06 03:58:44;;;;;;;3.80;2.75;;;;;;;;;;5030486;28;20026;-61
2024/01/06 04:01:10;;;;;;;3.58;2.97;;;;;;;;;;5011890;28;20041;-61
2024/01/06 04:03:38;;;;;;;11.50;3.67;;;;;;;;;;5018530;28;20544;-61
2024/01/06 04:06:04;;;;;;;7.53;3.38;;;;;;;;;;5013230;28;20034;-61
2024/01/06 04:08:30;;;;;;;6.32;3.05;;;;;;;;;;5025324;28;20029;-61
2024/01/06 04:10:57;;;;;;;3.80;3.15;;;;;;;;;;5009620;28;20029;-61
2024/01/06 04:13:24;;;;;;;10.23;2.92;;;;;;;;;;5018561;28;20056;-61
2024/01/06 04:15:51;;;;;;;5.05;3.55;;;;;;;;;;5008845;28;20026;-62
2024/01/06 04:18:17;;;;;;;11.32;3.75;;;;;;;;;;5012027;28;20022;-61
2024/01/06 04:20:44;;;;;;;6.20;3.10;;;;;;;;;;5027763;28;20081;-61
2024/01/06 04:23:10;;;;;;;6.85;3.13;;;;;;;;;;5016992;28;20025;-62
2024/01/06 04:25:36;;;;;;;6.68;3.13;;;;;;;;;;5004043;28;20033;-62
2024/01/06 04:28:02;;;;;;;4.45;2.95;;;;;;;;;;5006935;28;20021;-61
2024/01/06 04:30:28;;;;;;;3.65;2.97;;;;;;;;;;5020403;28;20026;-62
2024/01/06 04:32:56;;;;;;;3.78;2.90;;;;;;;;;;5015088;28;20489;-62
2024/01/06 04:35:23;;;;;;;4.50;2.78;;;;;;;;;;5029704;28;20037;-61
2024/01/06 04:37:49;;;;;;;4.20;2.50;;;;;;;;;;5009694;28;20390;-62
2024/01/06 04:40:15;;;;;;;3.67;2.88;;;;;;;;;;5016960;28;20432;-61
2024/01/06 04:42:41;;;;;;;5.45;3.47;;;;;;;;;;5011783;28;20025;-61
2024/01/06 04:45:08;;;;;;;3.22;2.40;;;;;;;;;;5025484;28;20038;-62
2024/01/06 04:47:34;;;;;;;7.07;3.55;;;;;;;;;;5005608;28;20030;-62
2024/01/06 04:50:01;;;;;;;2.60;2.40;;;;;;;;;;5010709;28;20316;-61
2024/01/06 04:52:27;;;;;;;4.60;2.22;;;;;;;;;;5021369;28;20057;-63
2024/01/06 04:54:55;;;;;;;6.55;2.75;;;;;;;;;;5019093;28;20026;-62
2024/01/06 04:57:21;;;;;;;4.47;2.42;;;;;;;;;;5016343;28;20025;-62
2024/01/06 04:59:47;;;;;;;3.75;2.50;;;;;;;;;;5011212;28;20088;-61
2024/01/06 05:02:13;;;;;;;5.20;2.33;;;;;;;;;;5007488;28;20040;-61
2024/01/06 05:04:40;;;;;;;8.18;2.47;;;;;;;;;;5011992;28;20025;-61
2024/01/06 05:07:06;;;;;;;3.00;2.70;;;;;;;;;;5025639;28;20250;-62
2024/01/06 05:09:32;;;;;;;2.83;2.28;;;;;;;;;;5007627;28;20048;-60
2024/01/06 05:11:58;;;;;;;3.17;2.75;;;;;;;;;;5044610;28;20052;-64
2024/01/06 05:14:25;;;;;;;2.13;2.03;;;;;;;;;;5012817;28;20080;-61
2024/01/06 05:16:51;;;;;;;2.88;2.17;;;;;;;;;;5042098;28;20028;-61
2024/01/06 05:19:20;;;;;;;4.63;3.05;;;;;;;;;;5015274;28;20037;-62
2024/01/06 05:21:47;;;;;;;2.50;2.17;;;;;;;;;;5020682;28;20045;-62
2024/01/06 05:24:13;;;;;;;2.83;2.63;;;;;;;;;;5016387;28;20065;-61
2024/01/06 05:26:39;;;;;;;2.97;2.67;;;;;;;;;;5029974;28;20436;-63
2024/01/06 05:29:06;;;;;;;5.20;2.70;;;;;;;;;;5016229;28;20029;-61
2024/01/06 05:31:32;;;;;;;6.15;2.83;;;;;;;;;;5017609;28;20021;-61
2024/01/06 05:33:58;;;;;;;5.50;3.47;;;;;;;;;;5014673;28;20036;-61
2024/01/06 05:36:25;;;;;;;3.85;2.17;;;;;;;;;;5016892;28;20496;-64
2024/01/06 05:38:51;;;;;;;2.90;2.70;;;;;;;;;;5018916;28;20030;-62
2024/01/06 05:41:18;;;;;;;2.97;2.72;;;;;;;;;;5026250;28;20065;-61
2024/01/06 05:43:44;;;;;;;7.88;2.95;;;;;;;;;;5019449;28;20044;-62
2024/01/06 05:46:11;;;;;;;3.90;3.03;;;;;;;;;;5013862;28;20441;-61
2024/01/06 05:48:37;;;;;;;3.63;2.83;;;;;;;;;;5018580;28;20509;-61
2024/01/06 05:51:06;;;;;;;3.85;2.60;;;;;;;;;;5013517;28;20049;-61
2024/01/06 05:53:32;;;;;;;3.42;2.35;;;;;;;;;;5038692;28;20032;-62
2024/01/06 05:55:58;;;;;;;3.05;2.22;;;;;;;;;;5017456;28;20583;-61
2024/01/06 05:58:24;;;;;;;9.05;2.63;;;;;;;;;;5010450;28;20084;-61
2024/01/06 06:00:51;;;;;;;6.22;3.03;;;;;;;;;;5010667;28;20350;-61
2024/01/06 06:03:17;;;;;;;6.13;3.08;;;;;;;;;;5014198;28;20029;-62
2024/01/06 06:05:44;;;;;;;4.35;2.53;;;;;;;;;;5014503;28;20116;-61
2024/01/06 06:08:11;;;;;;;2.78;2.38;;;;;;;;;;5019577;28;20048;-62
2024/01/06 06:10:59;;;;;;;2.00;1.90;;;;;;;;;;5018346;28;20490;-62
2024/01/06 06:13:26;;;;;;;12.05;2.25;;;;;;;;;;5018965;28;20433;-62
2024/01/06 06:15:52;;;;;;;2.20;1.95;;;;;;;;;;5013898;28;20021;-61
2024/01/06 06:18:19;;;;;;;3.03;2.58;;;;;;;;;;5022679;28;20037;-62
2024/01/06 06:20:45;;;;;;;4.05;2.60;;;;;;;;;;5015953;28;20393;-61
2024/01/06 06:23:11;;;;;;;3.97;2.28;;;;;;;;;;5016972;28;20448;-61
2024/01/06 06:25:39;;;;;;;5.38;2.53;;;;;;;;;;5013271;28;20064;-61
2024/01/06 06:28:06;;;;;;;3.28;2.88;;;;;;;;;;5013657;28;20063;-61
2024/01/06 06:30:32;;;;;;;2.28;1.88;;;;;;;;;;5021866;28;20436;-61
2024/01/06 06:32:58;;;;;;;2.58;2.38;;;;;;;;;;5018824;28;20400;-61
2024/01/06 06:35:25;;;;;;;3.00;1.92;;;;;;;;;;5017265;28;20546;-61
2024/01/06 06:37:51;;;;;;;4.47;2.33;;;;;;;;;;5010612;28;20356;-60
2024/01/06 06:40:17;;;;;;;3.08;2.63;;;;;;;;;;5012035;28;20112;-61
2024/01/06 06:42:43;;;;;;;7.07;2.45;;;;;;;;;;5021428;28;20097;-61
2024/01/06 06:45:11;;;;;;;9.60;3.17;;;;;;;;;;5009604;28;20034;-63
2024/01/06 06:47:38;;;;;;;5.28;2.97;;;;;;;;;;5016430;28;20549;-63
2024/01/06 06:50:05;;;;;;;8.30;2.90;;;;;;;;;;5032354;28;20583;-61
2024/01/06 06:52:31;;;;;;;4.18;2.28;;;;;;;;;;5015879;28;20021;-61
2024/01/06 06:54:57;;;;;;;3.40;2.72;;;;;;;;;;5016300;28;20037;-68
2024/01/06 06:57:24;;;;;;;4.25;2.42;;;;;;;;;;5017653;28;20030;-67
2024/01/06 06:59:50;;;;;;;2.22;2.00;;;;;;;;;;5031817;28;20040;-68
2024/01/06 07:02:16;;;;;;;2.50;2.13;;;;;;;;;;5019498;28;20105;-67
2024/01/06 07:04:43;;;;;;;2.05;1.90;;;;;;;;;;5020715;28;20041;-67
2024/01/06 07:07:09;;;;;;;3.97;3.00;;;;;;;;;;5010261;28;20875;-66
2024/01/06 07:09:35;;;;;;;3.13;2.33;;;;;;;;;;5016177;28;20537;-67
2024/01/06 07:12:01;;;;;;;2.20;1.92;;;;;;;;;;5018797;28;20030;-67
2024/01/06 07:14:28;;;;;;;2.83;2.63;;;;;;;;;;5013344;28;20571;-67
2024/01/06 07:16:54;;;;;;;2.55;2.33;;;;;;;;;;5029932;28;20080;-67
2024/01/06 07:19:20;;;;;;;3.30;2.75;;;;;;;;;;5016883;28;20093;-67
2024/01/06 07:21:46;;;;;;;2.20;2.00;;;;;;;;;;5013457;28;20026;-66
2024/01/06 07:24:13;;;;;;;2.85;2.30;;;;;;;;;;5015614;28;20430;-66
2024/01/06 07:26:39;;;;;;;2.75;2.55;;;;;;;;;;5014792;28;20775;-67
2024/01/06 07:29:06;;;;;;;3.60;2.78;;;;;;;;;;5008854;28;20087;-67
2024/01/06 07:31:33;;;;;;;2.80;2.30;;;;;;;;;;5011227;28;20025;-67
2024/01/06 07:33:59;;;;;;;3.17;2.45;;;;;;;;;;5017019;28;20112;-67
2024/01/06 07:36:25;;;;;;;2.35;2.20;;;;;;;;;;5020872;28;20428;-67
2024/01/06 07:38:51;;;;;;;7.35;3.40;;;;;;;;;;5018097;28;20556;-67
2024/01/06 07:41:18;;;;;;;2.70;2.45;;;;;;;;;;5017179;28;20029;-67
2024/01/06 07:43:44;;;;;;;3.70;2.40;;;;;;;;;;5012037;28;20026;-67
2024/01/06 07:46:10;;;;;;;4.35;2.65;;;;;;;;;;5012522;28;20021;-67
2024/01/06 07:48:37;;;;;;;2.78;2.50;;;;;;;;;;5036039;28;20030;-67
2024/01/06 07:51:03;;;;;;;2.65;2.40;;;;;;;;;;5022480;28;20050;-67
2024/01/06 07:53:29;;;;;;;2.42;2.25;;;;;;;;;;5013117;28;20441;-67
2024/01/06 07:55:56;;;;;;;5.72;2.88;;;;;;;;;;5014209;28;20099;-67
2024/01/06 07:58:22;;;;;;;3.10;1.95;;;;;;;;;;5014588;28;20057;-67
2024/01/06 08:00:48;;;;;;;6.82;2.67;;;;;;;;;;5017993;28;20037;-67
2024/01/06 08:03:16;;;;;;;3.25;2.67;;;;;;;;;;5014702;28;20512;-67
2024/01/06 08:05:42;;;;;;;3.45;2.15;;;;;;;;;;5014440;28;20025;-67
2024/01/06 08:08:09;;;;;;;2.75;2.55;;;;;;;;;;5030276;28;20034;-67
2024/01/06 08:10:35;;;;;;;7.05;5.10;;;;;;;;;;5010087;28;20036;-69
2024/01/06 08:13:02;;;;;;;14.88;10.32;;;;;;;;;;5018773;28;20025;-70
2024/01/06 08:15:28;;;;;;;4.20;3.40;;;;;;;;;;5015776;28;20025;-70
2024/01/06 08:17:55;;;;;;;5.07;3.97;;;;;;;;;;5010585;28;20021;-70
2024/01/06 08:20:21;;;;;;;6.82;4.50;;;;;;;;;;5013605;28;20025;-70
2024/01/06 08:22:47;;;;;;;7.88;6.93;;;;;;;;;;5011724;28;20575;-70
2024/01/06 08:25:17;;;;;;;4.18;3.67;;;;;;;;;;5006823;28;20026;-70
2024/01/06 08:27:44;;;;;;;10.90;3.25;;;;;;;;;;5020222;28;20026;-70
2024/01/06 08:30:11;;;;;;;3.25;2.33;;;;;;;;;;5017396;28;20022;-70
2024/01/06 08:32:37;;;;;;;2.33;2.20;;;;;;;;;;5020317;28;20029;-70
2024/01/06 08:35:03;;;;;;;5.90;2.25;;;;;;;;;;5016923;28;20091;-69
2024/01/06 08:37:30;;;;;;;3.72;3.35;;;;;;;;;;5015515;28;20052;-70
2024/01/06 08:39:56;;;;;;;3.15;2.85;;;;;;;;;;5015363;28;20033;-69
2024/01/06 08:42:24;;;;;;;3.67;3.35;;;;;;;;;;5021099;28;20317;-70
2024/01/06 08:44:50;;;;;;;5.50;3.58;;;;;;;;;;5005608;28;20034;-70
2024/01/06 08:47:16;;;;;;;3.67;3.38;;;;;;;;;;5007677;28;20033;-69
2024/01/06 08:49:42;;;;;;;3.97;3.65;;;;;;;;;;5014974;28;20479;-69
2024/01/06 08:52:08;;;;;;;13.07;4.32;;;;;;;;;;5017201;28;20033;-69
2024/01/06 08:54:35;;;;;;;6.78;3.28;;;;;;;;;;5028596;28;20080;-69
2024/01/06 08:57:01;;;;;;;2.67;2.15;;;;;;;;;;5011534;28;20018;-69
2024/01/06 08:59:28;;;;;;;2.65;2.45;;;;;;;;;;5012450;28;20029;-69
2024/01/06 09:01:54;;;;;;;4.72;2.53;;;;;;;;;;5014635;28;20034;-70
2024/01/06 09:04:20;;;;;;;10.27;2.53;;;;;;;;;;5018035;28;20497;-70
2024/01/06 09:06:46;;;;;;;12.27;2.42;;;;;;;;;;5035603;28;20428;-69
2024/01/06 09:09:13;;;;;;;6.72;3.17;;;;;;;;;;5015985;28;20029;-70
2024/01/06 09:11:39;;;;;;;3.00;2.67;;;;;;;;;;5036227;28;20072;-70
2024/01/06 09:14:05;;;;;;;4.82;2.03;;;;;;;;;;5017641;28;20381;-70
2024/01/06 09:16:31;;;;;;;3.45;3.20;;;;;;;;;;5040010;28;20025;-70
2024/01/06 09:18:57;;;;;;;4.88;3.58;;;;;;;;;;5023089;28;20076;-70
2024/01/06 09:21:24;;;;;;;3.83;2.20;;;;;;;;;;5025152;28;20029;-70
2024/01/06 09:23:50;;;;;;;10.75;3.03;;;;;;;;;;5023472;28;20558;-70
2024/01/06 09:26:16;;;;;;;3.58;2.83;;;;;;;;;;5020109;28;20025;-70
2024/01/06 09:28:42;;;;;;;11.60;2.30;;;;;;;;;;5018410;28;20033;-70
2024/01/06 09:31:08;;;;;;;2.53;2.15;;;;;;;;;;5013463;28;20038;-69
2024/01/06 09:33:34;;;;;;;2.83;2.33;;;;;;;;;;5020255;28;20096;-70
2024/01/06 09:36:01;;;;;;;2.58;2.38;;;;;;;;;;5029384;28;20040;-70
2024/01/06 09:38:27;;;;;;;4.70;2.67;;;;;;;;;;5011609;28;20057;-70
2024/01/06 09:40:54;;;;;;;2.92;2.67;;;;;;;;;;5033333;28;20045;-70
2024/01/06 09:43:20;;;;;;;2.92;2.10;;;;;;;;;;5016489;28;20037;-71
2024/01/06 09:45:49;;;;;;;5.75;2.20;;;;;;;;;;5013118;28;20056;-70
2024/01/06 09:48:17;;;;;;;2.90;2.35;;;;;;;;;;5034504;28;20021;-70
2024/01/06 09:50:46;;;;;;;2.65;1.95;;;;;;;;;;5022549;28;20508;-70
2024/01/06 09:53:13;;;;;;;4.00;2.60;;;;;;;;;;5023619;28;20354;-70
2024/01/06 09:55:39;;;;;;;2.35;2.10;;;;;;;;;;5008341;28;20359;-70
2024/01/06 09:58:10;;;;;;;2.47;2.20;;;;;;;;;;5025514;28;20084;-69
2024/01/06 10:00:36;;;;;;;8.88;2.30;;;;;;;;;;5018788;28;20087;-69
2024/01/06 10:03:03;;;;;;;3.05;2.60;;;;;;;;;;5016065;28;20064;-68
2024/01/06 10:05:30;;;;;;;3.10;2.47;;;;;;;;;;5013950;28;20034;-69
2024/01/06 10:07:56;;;;;;;3.35;2.15;;;;;;;;;;5015500;28;20028;-69
2024/01/06 10:10:23;;;;;;;2.40;2.20;;;;;;;;;;5021062;28;20034;-69
2024/01/06 10:12:54;;;;;;;4.40;2.20;;;;;;;;;;5011469;28;20025;-68
2024/01/06 10:15:20;;;;;;;2.33;1.95;;;;;;;;;;5013284;28;20065;-70
2024/01/06 10:17:47;;;;;;;4.93;2.45;;;;;;;;;;5011130;28;20421;-69
2024/01/06 10:20:15;;;;;;;3.00;2.72;;;;;;;;;;5009451;28;20109;-69
2024/01/06 10:22:41;;;;;;;2.42;2.10;;;;;;;;;;5021842;28;20128;-69
2024/01/06 10:25:09;;;;;;;4.65;2.45;;;;;;;;;;5028452;28;20064;-69
2024/01/06 10:27:39;;;;;;;3.58;2.75;;;;;;;;;;5019639;28;20056;-69
2024/01/06 10:30:06;;;;;;;5.47;1.98;;;;;;;;;;5011063;28;20457;-70
2024/01/06 10:32:33;;;;;;;4.35;2.78;;;;;;;;;;5018313;28;20040;-69
2024/01/06 10:35:03;;;;;;;7.07;2.72;;;;;;;;;;5020885;28;20045;-69
2024/01/06 10:37:30;;;;;;;6.53;3.33;;;;;;;;;;5011042;28;20435;-69
2024/01/06 10:40:12;;;;;;;3.10;2.08;;;;;;;;;;5044146;28;20033;-69
2024/01/06 10:42:39;;;;;;;2.70;2.22;;;;;;;;;;5023319;28;20379;-69
2024/01/06 10:45:09;;;;;;;3.38;2.30;;;;;;;;;;5029619;28;20040;-69
2024/01/06 10:47:39;;;;;;;6.03;3.45;;;;;;;;;;5024480;28;20275;-70
2024/01/06 10:50:06;;;;;;;7.35;2.63;;;;;;;;;;5013305;28;20056;-69
2024/01/06 10:52:32;;;;;;;5.53;2.40;;;;;;;;;;5023609;28;20469;-70
2024/01/06 10:54:59;;;;;;;5.63;3.28;;;;;;;;;;5017075;28;20381;-69
2024/01/06 10:57:25;;;;;;;4.47;2.92;;;;;;;;;;5036209;28;20026;-70
2024/01/06 10:59:52;;;;;;;11.18;3.50;;;;;;;;;;5039379;28;20387;-70
2024/01/06 11:02:19;;;;;;;2.85;2.55;;;;;;;;;;5021720;28;20414;-70
2024/01/06 11:04:50;;;;;;;6.47;2.53;;;;;;;;;;5019080;28;20148;-69
2024/01/06 11:07:18;;;;;;;4.88;4.38;;;;;;;;;;5031891;28;20436;-69
2024/01/06 11:09:49;;;;;;;5.38;4.85;;;;;;;;;;5019758;28;20071;-69
2024/01/06 11:12:16;;;;;;;6.28;3.80;;;;;;;;;;5018258;28;20018;-69
2024/01/06 11:14:42;;;;;;;4.13;3.38;;;;;;;;;;5013770;28;20025;-70
2024/01/06 11:17:10;;;;;;;3.65;2.83;;;;;;;;;;5014295;28;20013;-70
2024/01/06 11:19:43;;;;;;;5.18;2.88;;;;;;;;;;5008983;28;20037;-69
2024/01/06 11:22:31;;;;;;;2.75;2.55;;;;;;;;;;5007628;28;20028;-70
2024/01/06 11:24:58;;;;;;;4.40;2.65;;;;;;;;;;5009884;28;20414;-70
2024/01/06 11:27:28;;;;;;;3.22;2.50;;;;;;;;;;5011377;28;20095;-70
2024/01/06 11:29:55;;;;;;;5.50;3.33;;;;;;;;;;5031599;28;20253;-70
2024/01/06 11:32:35;;;;;;;5.15;3.17;;;;;;;;;;5015686;28;20029;-70
2024/01/06 11:35:09;;;;;;;6.00;2.72;;;;;;;;;;5013497;28;20434;-71
2024/01/06 11:37:43;;;;;;;4.30;3.00;;;;;;;;;;5017871;28;20580;-71
2024/01/06 11:40:25;;;;;;;5.22;3.40;;;;;;;;;;5025641;28;20374;-70
2024/01/06 11:43:07;;;;;;;7.95;3.60;;;;;;;;;;5016435;28;20041;-71
2024/01/06 11:45:34;;;;;;;8.82;2.92;;;;;;;;;;5011320;28;20477;-71
2024/01/06 11:48:02;;;;;;;3.05;2.65;;;;;;;;;;5012571;28;20670;-71
2024/01/06 11:50:29;;;;;;;4.47;2.90;;;;;;;;;;5011175;28;20041;-71
2024/01/06 11:52:55;;;;;;;5.20;3.15;;;;;;;;;;5013751;28;20021;-71
2024/01/06 11:55:22;;;;;;;5.90;3.28;;;;;;;;;;5016162;28;20022;-72
2024/01/06 11:57:49;;;;;;;7.50;3.20;;;;;;;;;;5015478;28;20040;-72
2024/01/06 12:00:16;;;;;;;10.55;3.78;;;;;;;;;;5015068;28;20516;-72
2024/01/06 12:02:42;;;;;;;5.18;4.13;;;;;;;;;;5031232;28;20082;-71
2024/01/06 12:05:15;;;;;;;9.27;4.95;;;;;;;;;;5009860;28;20455;-72
2024/01/06 12:07:42;;;;;;;7.68;3.90;;;;;;;;;;5020057;28;20053;-72
2024/01/06 12:10:09;;;;;;;7.60;4.22;;;;;;;;;;5012172;28;20903;-71
2024/01/06 12:12:35;;;;;;;12.48;5.72;;;;;;;;;;5017017;28;20041;-73
2024/01/06 12:15:01;;;;;;;5.13;3.65;;;;;;;;;;5022438;28;20495;-71
2024/01/06 12:17:31;;;;;;;7.35;3.53;;;;;;;;;;5014703;28;20032;-71
2024/01/06 12:19:58;;;;;;;3.70;3.00;;;;;;;;;;5018428;28;20420;-72
2024/01/06 12:22:24;;;;;;;5.10;3.13;;;;;;;;;;5015107;28;20025;-71
2024/01/06 12:24:51;;;;;;;7.07;3.30;;;;;;;;;;5020146;28;20040;-72
2024/01/06 12:27:18;;;;;;;4.55;3.75;;;;;;;;;;5031486;28;20485;-72
2024/01/06 12:29:45;;;;;;;7.28;3.22;;;;;;;;;;5022694;28;20332;-72
2024/01/06 12:32:13;;;;;;;6.68;3.30;;;;;;;;;;5016180;28;20609;-73
2024/01/06 12:34:39;;;;;;;6.18;3.13;;;;;;;;;;5020635;28;20511;-72
2024/01/06 12:37:07;;;;;;;3.70;3.10;;;;;;;;;;5022052;28;20126;-72
2024/01/06 12:39:33;;;;;;;5.45;4.70;;;;;;;;;;5040206;28;20030;-72
2024/01/06 12:42:01;;;;;;;9.40;5.35;;;;;;;;;;5024107;28;20369;-71
2024/01/06 12:44:28;;;;;;;9.95;6.43;;;;;;;;;;5021752;28;20436;-72
2024/01/06 12:46:54;;;;;;;51.17;23.02;;;;;;;;;;5012674;28;20570;-71
2024/01/06 12:49:20;;;;;;;6.20;4.93;;;;;;;;;;5011958;28;20512;-62
2024/01/06 12:51:47;;;;;;;12.20;7.68;;;;;;;;;;5015477;28;20040;-62
2024/01/06 12:54:13;;;;;;;7.13;5.28;;;;;;;;;;5020788;28;20029;-63
2024/01/06 12:56:39;;;;;;;6.93;5.93;;;;;;;;;;5019019;28;20488;-62
2024/01/06 12:59:06;;;;;;;6.95;3.83;;;;;;;;;;5038707;28;20452;-62
2024/01/06 13:01:32;;;;;;;6.75;3.20;;;;;;;;;;5022129;28;20503;-62
2024/01/06 13:04:00;;;;;;;4.18;3.50;;;;;;;;;;5014581;28;20107;-62
2024/01/06 13:06:26;;;;;;;4.68;3.67;;;;;;;;;;5021085;28;20048;-62
2024/01/06 13:08:53;;;;;;;8.73;6.88;;;;;;;;;;5019282;28;20820;-64
2024/01/06 13:11:19;;;;;;;8.20;5.68;;;;;;;;;;5020070;28;20375;-62
2024/01/06 13:13:45;;;;;;;9.98;7.18;;;;;;;;;;5013420;28;20400;-67
2024/01/06 13:16:11;;;;;;;9.07;5.60;;;;;;;;;;5020382;28;20099;-62
2024/01/06 13:18:38;;;;;;;10.68;6.80;;;;;;;;;;5021240;28;20637;-62
2024/01/06 13:21:04;;;;;;;8.10;5.30;;;;;;;;;;5017886;28;20025;-62
2024/01/06 13:23:30;;;;;;;7.50;4.45;;;;;;;;;;5016733;28;20140;-62
2024/01/06 13:25:57;;;;;;;6.10;5.22;;;;;;;;;;5010927;28;20672;-62
2024/01/06 13:28:24;;;;;;;4.65;3.53;;;;;;;;;;5018669;28;20040;-62
2024/01/06 13:30:50;;;;;;;4.50;4.10;;;;;;;;;;5009468;28;20503;-62
2024/01/06 13:33:16;;;;;;;6.43;5.00;;;;;;;;;;5018969;28;20029;-61
2024/01/06 13:35:43;;;;;;;7.00;4.28;;;;;;;;;;5017725;28;20540;-62
2024/01/06 13:38:09;;;;;;;6.75;5.30;;;;;;;;;;5017604;28;20021;-62
2024/01/06 13:40:36;;;;;;;5.05;3.92;;;;;;;;;;5023654;28;20029;-62
2024/01/06 13:43:04;;;;;;;17.15;10.48;;;;;;;;;;5019907;28;20037;-63
2024/01/06 13:45:31;;;;;;;23.55;17.20;;;;;;;;;;5002200;28;20060;-63
2024/01/06 13:47:58;;;;;;;32.05;28.88;;;;;;;;;;5018008;28;20057;-63
2024/01/06 13:50:24;;;;;;;7.70;7.00;;;;;;;;;;5018253;28;20609;-62
2024/01/06 13:52:50;;;;;;;6.13;4.97;;;;;;;;;;5019871;28;20033;-62
2024/01/06 13:55:16;;;;;;;10.25;9.25;;;;;;;;;;5021246;28;20049;-63
2024/01/06 13:57:42;;;;;;;7.78;7.05;;;;;;;;;;5018251;28;20425;-63
2024/01/06 14:00:10;;;;;;;5.75;4.72;;;;;;;;;;5017767;28;20033;-63
2024/01/06 14:02:37;;;;;;;3.95;3.50;;;;;;;;;;5020766;28;20032;-63
2024/01/06 14:05:04;;;;;;;5.63;3.90;;;;;;;;;;5018409;28;20634;-62
2024/01/06 14:07:30;;;;;;;5.00;4.50;;;;;;;;;;5022710;28;20033;-62
2024/01/06 14:09:56;;;;;;;6.35;5.18;;;;;;;;;;5021507;28;20034;-62
2024/01/06 14:12:23;;;;;;;5.78;3.22;;;;;;;;;;5018296;28;20033;-63
2024/01/06 14:14:50;;;;;;;3.97;2.97;;;;;;;;;;5022782;28;20029;-62
2024/01/06 14:17:16;;;;;;;8.48;3.03;;;;;;;;;;5018788;28;20586;-62
2024/01/06 14:19:42;;;;;;;5.35;2.78;;;;;;;;;;5019475;28;20032;-62
2024/01/06 14:22:08;;;;;;;4.70;2.58;;;;;;;;;;5018701;28;20690;-62
2024/01/06 14:24:36;;;;;;;4.50;3.10;;;;;;;;;;5022554;28;20029;-62
2024/01/06 14:27:03;;;;;;;6.05;3.38;;;;;;;;;;5031537;28;20107;-62
2024/01/06 14:29:30;;;;;;;7.40;3.63;;;;;;;;;;5020083;28;20412;-64
2024/01/06 14:31:57;;;;;;;3.67;2.65;;;;;;;;;;5012835;28;20091;-62
2024/01/06 14:34:24;;;;;;;5.07;3.35;;;;;;;;;;5014760;28;20470;-62
2024/01/06 14:36:51;;;;;;;3.42;3.13;;;;;;;;;;5020321;28;20025;-62
2024/01/06 14:39:24;;;;;;;3.30;3.00;;;;;;;;;;5016239;28;20034;-62